Bentonville, Arkansas
Current Conditions -  °F | °C
As of 7:35 PM on Friday 31 Oct 2014 (Local Time) from KVBT Reporting Station
Clear Clear  
Wind Chill: 36°   Ceiling: Unl
Heat Index: 41°   Visibility: 10mi
Dew Point: 19°   Wind: 7mph
Humidity: 42%   Direction: 10°N
Pressure: 30.39"   Gusts: NA
Location:  36.37°N, 94.21°W
Report Text: KVBT 010035Z AUTO 01006KT 10SM CLR 05/M07 A3039 RMK AO1
Loading
Personal Weather Stations






























Interactive Weather Map
Tropical Storm Tracking
New forecast layout! Learn more

10-Day Weather Forecast

Advertisements
Track Severe Weather on mobile